»·PEaware :: N4657 KSAN-KBUR

N4657 :: KSAN-KBUR

FLIGHT INFORMATION

Flight Status: Arrived
Operator: Privately registered:
United States
More flights under this callsign
Pilot: Daniel P. (20187)
Aircraft: PILATUS PC-12 EAGLE
(PC12)
More flights by this aircraft type
Origin: KSAN San Diego Intl-Lindbergh
United States
Destination: KBUR Bob Hope-Burbank
United States
More flights between these airports :: More routes between these airports
Route: +CWARD2 LAX SILEX
File this flight plan on PilotEdge
Remarks: TEC route SANP14
Altitude:
(Current/Filed)
8,000ft
Speed:
(Current/Filed)
200kts
Departed: 16-Sep-18 08:20 AM
Arrived: 16-Sep-18 09:05 AM
Distance/Time
Traveled:
106nm/0:45
Distance/Time
To Go:
Arrived

Flight Plot

Page will automatically refresh every two minutes.

Flight plan parsing failed; only flown route is shown


Map Options




Map Legend


Flown Route
Filed Route
Departure Airport
Arrival Airport
Navaid (VOR, NDB)
Fix

Horizontal Profiles

Position Reports

Time Latitude Longitude Heading Altitude Ground
Speed
16-Sep-18 07:31 32.734272 -117.185249 196 17ft 0kts
16-Sep-18 07:32 32.734272 -117.185249 196 17ft 0kts
16-Sep-18 07:33 32.734272 -117.185249 196 17ft 0kts
16-Sep-18 07:34 32.734272 -117.185249 196 17ft 0kts
16-Sep-18 07:35 32.734271 -117.185249 195 17ft 0kts
16-Sep-18 07:36 32.734271 -117.185249 195 17ft 0kts
16-Sep-18 07:37 32.734271 -117.185249 195 17ft 0kts
16-Sep-18 07:38 32.734271 -117.185249 195 17ft 0kts
16-Sep-18 07:39 32.734271 -117.185249 195 17ft 0kts
16-Sep-18 07:40 32.734271 -117.185249 195 17ft 0kts
16-Sep-18 07:41 32.734271 -117.185249 195 17ft 0kts
16-Sep-18 07:42 32.734271 -117.185249 195 17ft 0kts
16-Sep-18 07:43 32.734271 -117.185249 195 17ft 0kts
16-Sep-18 07:44 32.734271 -117.185249 195 17ft 0kts
16-Sep-18 07:45 32.734271 -117.185249 195 17ft 0kts
16-Sep-18 07:46 32.734271 -117.185249 195 17ft 0kts
16-Sep-18 07:47 32.734271 -117.185249 195 17ft 0kts
16-Sep-18 07:48 32.734271 -117.185249 195 17ft 0kts
16-Sep-18 07:49 32.734271 -117.185249 195 17ft 0kts
16-Sep-18 07:50 32.734271 -117.185249 195 17ft 0kts
16-Sep-18 07:51 32.734271 -117.185249 195 17ft 0kts
16-Sep-18 07:52 32.734271 -117.185249 195 17ft 0kts
16-Sep-18 07:53 32.734271 -117.185249 195 17ft 0kts
16-Sep-18 07:54 32.734271 -117.185249 195 17ft 0kts
16-Sep-18 07:55 32.734271 -117.185249 195 17ft 0kts
16-Sep-18 07:56 32.734271 -117.185249 195 17ft 0kts
16-Sep-18 07:57 32.734271 -117.185249 195 17ft 0kts
16-Sep-18 07:58 32.734271 -117.185249 195 17ft 0kts
16-Sep-18 07:59 32.734271 -117.185249 195 17ft 0kts
16-Sep-18 08:00 32.734103 -117.185303 194 17ft 0kts
16-Sep-18 08:01 32.734103 -117.185303 194 17ft 0kts
16-Sep-18 08:02 32.734096 -117.185306 197 17ft 0kts
16-Sep-18 08:03 32.734096 -117.185306 197 17ft 0kts
16-Sep-18 08:07 32.734272 -117.185249 196 17ft 0kts
16-Sep-18 08:08 32.734271 -117.185249 195 17ft 0kts
16-Sep-18 08:09 32.734271 -117.185249 195 17ft 0kts
16-Sep-18 08:10 32.734271 -117.185249 195 17ft 0kts
16-Sep-18 08:11 32.734271 -117.185249 195 17ft 0kts
16-Sep-18 08:12 32.734271 -117.185249 195 17ft 0kts
16-Sep-18 08:13 32.734271 -117.185249 195 17ft 0kts
16-Sep-18 08:14 32.733704 -117.185178 129 17ft 11kts
16-Sep-18 08:15 32.732832 -117.181630 106 16ft 15kts
16-Sep-18 08:16 32.731815 -117.177661 107 20ft 13kts
16-Sep-18 08:17 32.730931 -117.175474 144 21ft 0kts
16-Sep-18 08:18 32.730931 -117.175474 144 21ft 0kts
16-Sep-18 08:19 32.730931 -117.175474 144 21ft 0kts
16-Sep-18 08:20 32.730931 -117.175474 144 21ft 0kts
16-Sep-18 08:21 32.730221 -117.175816 286 20ft 0kts
16-Sep-18 08:22 32.735765 -117.198710 285 774ft 117kts
16-Sep-18 08:23 32.740370 -117.235877 257 2777ft 119kts
16-Sep-18 08:24 32.745779 -117.270022 335 4719ft 139kts
16-Sep-18 08:25 32.781871 -117.299250 314 6754ft 172kts
16-Sep-18 08:26 32.816028 -117.345229 305 8003ft 215kts
16-Sep-18 08:27 32.855752 -117.406060 305 7995ft 241kts
16-Sep-18 08:28 32.896631 -117.469351 305 7991ft 236kts
16-Sep-18 08:29 32.935496 -117.529819 305 7994ft 227kts
16-Sep-18 08:30 32.973644 -117.589297 305 7999ft 225kts
16-Sep-18 08:31 33.011588 -117.648542 305 7999ft 224kts
16-Sep-18 08:32 33.050165 -117.709150 307 7999ft 241kts
16-Sep-18 08:33 33.099095 -117.765787 318 7990ft 249kts
16-Sep-18 08:34 33.149680 -117.817059 317 7977ft 249kts
16-Sep-18 08:35 33.204933 -117.865226 345 7981ft 251kts
16-Sep-18 08:36 33.273168 -117.881927 346 7983ft 251kts
16-Sep-18 08:37 33.341523 -117.898920 346 7983ft 251kts
16-Sep-18 08:38 33.404905 -117.928690 318 7982ft 248kts
16-Sep-18 08:39 33.458772 -117.980230 319 7975ft 249kts
16-Sep-18 08:40 33.513076 -118.031668 319 7973ft 249kts
16-Sep-18 08:41 33.566261 -118.082087 319 7328ft 239kts
16-Sep-18 08:42 33.617785 -118.131179 321 6730ft 233kts
16-Sep-18 08:43 33.669604 -118.180480 323 5974ft 238kts
16-Sep-18 08:44 33.718578 -118.226627 320 5918ft 207kts
16-Sep-18 08:45 33.761632 -118.267909 320 5919ft 193kts
16-Sep-18 08:46 33.803365 -118.307821 320 5920ft 191kts
16-Sep-18 08:47 33.844343 -118.347384 323 5972ft 196kts
16-Sep-18 08:48 33.888656 -118.389486 323 5977ft 207kts
16-Sep-18 08:49 33.934201 -118.432535 327 5973ft 204kts
16-Sep-18 08:50 33.981464 -118.464334 328 5969ft 178kts
16-Sep-18 08:51 34.021209 -118.490979 327 5971ft 153kts
16-Sep-18 08:52 34.057621 -118.515422 327 5851ft 149kts
16-Sep-18 08:53 34.092924 -118.539099 328 4843ft 152kts
16-Sep-18 08:54 34.131470 -118.565014 329 3994ft 156kts
16-Sep-18 08:55 34.168101 -118.589704 330 3994ft 168kts
16-Sep-18 08:56 34.209498 -118.619280 328 3994ft 166kts
16-Sep-18 08:57 34.246795 -118.646663 328 4001ft 151kts
16-Sep-18 08:58 34.243648 -118.679469 176 4005ft 138kts
16-Sep-18 08:59 34.221702 -118.653125 118 4008ft 108kts
16-Sep-18 09:00 34.205368 -118.617684 107 4000ft 124kts
16-Sep-18 09:01 34.200934 -118.577125 89 3944ft 132kts
16-Sep-18 09:02 34.200148 -118.532247 88 3383ft 133kts
16-Sep-18 09:03 34.199505 -118.489896 89 3022ft 104kts
16-Sep-18 09:04 34.199024 -118.456186 89 2430ft 94kts
16-Sep-18 09:05 34.198618 -118.425345 89 1797ft 98kts
16-Sep-18 09:06 34.198207 -118.392343 89 1157ft 96kts
16-Sep-18 09:07 34.197828 -118.363262 90 720ft 40kts
16-Sep-18 09:08 34.198478 -118.360390 2 717ft 0kts
16-Sep-18 09:09 34.198478 -118.360390 2 717ft 0kts

Navigation Log

Ident Type
Flight plan parsing failed, navigation log unavailable